sensor_id;sensor_type;location;lat;lon;timestamp;P1;durP1;ratioP1;P2;durP2;ratioP2
4206;SDS011;2117;47.972;7.830;2023-05-10T00:00:52;2.40;;;1.40;;
4206;SDS011;2117;47.972;7.830;2023-05-10T00:03:17;8.30;;;1.20;;
4206;SDS011;2117;47.972;7.830;2023-05-10T00:05:43;1.67;;;1.10;;
4206;SDS011;2117;47.972;7.830;2023-05-10T00:08:08;2.60;;;1.20;;
4206;SDS011;2117;47.972;7.830;2023-05-10T00:10:34;1.90;;;1.30;;
4206;SDS011;2117;47.972;7.830;2023-05-10T00:13:01;1.83;;;1.23;;
4206;SDS011;2117;47.972;7.830;2023-05-10T00:15:26;1.97;;;1.30;;
4206;SDS011;2117;47.972;7.830;2023-05-10T00:17:52;1.63;;;1.10;;
4206;SDS011;2117;47.972;7.830;2023-05-10T00:20:17;1.80;;;0.87;;
4206;SDS011;2117;47.972;7.830;2023-05-10T00:22:43;1.70;;;1.30;;
4206;SDS011;2117;47.972;7.830;2023-05-10T00:25:08;1.83;;;1.00;;
4206;SDS011;2117;47.972;7.830;2023-05-10T00:27:35;1.70;;;1.00;;
4206;SDS011;2117;47.972;7.830;2023-05-10T00:30:00;2.13;;;1.40;;
4206;SDS011;2117;47.972;7.830;2023-05-10T00:32:26;2.73;;;1.13;;
4206;SDS011;2117;47.972;7.830;2023-05-10T00:34:52;1.80;;;0.90;;
4206;SDS011;2117;47.972;7.830;2023-05-10T00:37:17;2.70;;;1.40;;
4206;SDS011;2117;47.972;7.830;2023-05-10T00:39:43;2.90;;;1.13;;
4206;SDS011;2117;47.972;7.830;2023-05-10T00:42:08;2.40;;;1.43;;
4206;SDS011;2117;47.972;7.830;2023-05-10T00:44:34;1.50;;;0.93;;
4206;SDS011;2117;47.972;7.830;2023-05-10T00:46:59;1.50;;;1.00;;
4206;SDS011;2117;47.972;7.830;2023-05-10T00:49:25;1.33;;;1.10;;
4206;SDS011;2117;47.972;7.830;2023-05-10T00:51:51;1.97;;;1.00;;
4206;SDS011;2117;47.972;7.830;2023-05-10T00:54:17;1.90;;;1.20;;
4206;SDS011;2117;47.972;7.830;2023-05-10T00:56:42;1.40;;;0.90;;
4206;SDS011;2117;47.972;7.830;2023-05-10T00:59:13;2.50;;;1.27;;
4206;SDS011;2117;47.972;7.830;2023-05-10T01:01:43;3.40;;;1.10;;
4206;SDS011;2117;47.972;7.830;2023-05-10T01:04:14;4.17;;;3.43;;
4206;SDS011;2117;47.972;7.830;2023-05-10T01:06:40;1.80;;;1.30;;
4206;SDS011;2117;47.972;7.830;2023-05-10T01:09:06;2.70;;;1.20;;
4206;SDS011;2117;47.972;7.830;2023-05-10T01:11:33;1.80;;;1.30;;
4206;SDS011;2117;47.972;7.830;2023-05-10T01:14:02;7.63;;;1.60;;
4206;SDS011;2117;47.972;7.830;2023-05-10T01:16:29;3.00;;;1.37;;
4206;SDS011;2117;47.972;7.830;2023-05-10T01:18:59;2.47;;;1.57;;
4206;SDS011;2117;47.972;7.830;2023-05-10T01:32:43;2.10;;;1.50;;
4206;SDS011;2117;47.972;7.830;2023-05-10T01:35:35;2.00;;;1.70;;
4206;SDS011;2117;47.972;7.830;2023-05-10T01:46:35;3.37;;;1.83;;
4206;SDS011;2117;47.972;7.830;2023-05-10T01:49:02;2.07;;;1.83;;
4206;SDS011;2117;47.972;7.830;2023-05-10T01:51:42;4.00;;;1.73;;
4206;SDS011;2117;47.972;7.830;2023-05-10T01:54:12;4.23;;;1.73;;
4206;SDS011;2117;47.972;7.830;2023-05-10T01:56:39;3.70;;;1.97;;
4206;SDS011;2117;47.972;7.830;2023-05-10T01:59:08;10.50;;;2.20;;
4206;SDS011;2117;47.972;7.830;2023-05-10T02:01:37;1.90;;;1.43;;
4206;SDS011;2117;47.972;7.830;2023-05-10T02:04:04;4.50;;;1.93;;
4206;SDS011;2117;47.972;7.830;2023-05-10T02:06:32;2.27;;;1.80;;
4206;SDS011;2117;47.972;7.830;2023-05-10T02:08:59;3.13;;;1.97;;
4206;SDS011;2117;47.972;7.830;2023-05-10T02:11:27;3.17;;;2.00;;
4206;SDS011;2117;47.972;7.830;2023-05-10T02:13:54;2.60;;;2.30;;
4206;SDS011;2117;47.972;7.830;2023-05-10T02:16:21;3.80;;;2.70;;
4206;SDS011;2117;47.972;7.830;2023-05-10T02:18:49;2.77;;;1.90;;
4206;SDS011;2117;47.972;7.830;2023-05-10T02:21:17;3.70;;;2.00;;
4206;SDS011;2117;47.972;7.830;2023-05-10T02:23:45;2.00;;;1.63;;
4206;SDS011;2117;47.972;7.830;2023-05-10T02:26:13;3.70;;;1.70;;
4206;SDS011;2117;47.972;7.830;2023-05-10T02:28:40;5.90;;;2.20;;
4206;SDS011;2117;47.972;7.830;2023-05-10T02:31:07;2.23;;;1.63;;
4206;SDS011;2117;47.972;7.830;2023-05-10T02:33:35;4.10;;;1.77;;
4206;SDS011;2117;47.972;7.830;2023-05-10T02:36:03;2.20;;;1.60;;
4206;SDS011;2117;47.972;7.830;2023-05-10T02:38:30;1.83;;;1.37;;
4206;SDS011;2117;47.972;7.830;2023-05-10T02:40:57;13.47;;;2.07;;
4206;SDS011;2117;47.972;7.830;2023-05-10T02:43:24;4.07;;;1.63;;
4206;SDS011;2117;47.972;7.830;2023-05-10T02:45:50;2.33;;;1.80;;
4206;SDS011;2117;47.972;7.830;2023-05-10T02:48:16;4.27;;;1.60;;
4206;SDS011;2117;47.972;7.830;2023-05-10T02:50:45;2.17;;;1.20;;
4206;SDS011;2117;47.972;7.830;2023-05-10T02:53:18;2.10;;;1.80;;
4206;SDS011;2117;47.972;7.830;2023-05-10T02:55:49;3.50;;;1.60;;
4206;SDS011;2117;47.972;7.830;2023-05-10T02:58:17;2.90;;;1.63;;
4206;SDS011;2117;47.972;7.830;2023-05-10T03:00:44;2.40;;;1.47;;
4206;SDS011;2117;47.972;7.830;2023-05-10T03:03:11;4.03;;;1.50;;
4206;SDS011;2117;47.972;7.830;2023-05-10T03:05:36;2.80;;;1.73;;
4206;SDS011;2117;47.972;7.830;2023-05-10T03:08:02;6.17;;;1.60;;
4206;SDS011;2117;47.972;7.830;2023-05-10T03:10:29;2.57;;;1.50;;
4206;SDS011;2117;47.972;7.830;2023-05-10T03:15:31;1.93;;;1.30;;
4206;SDS011;2117;47.972;7.830;2023-05-10T03:18:02;2.40;;;1.50;;
4206;SDS011;2117;47.972;7.830;2023-05-10T03:20:43;2.70;;;1.30;;
4206;SDS011;2117;47.972;7.830;2023-05-10T03:26:20;3.77;;;2.00;;
4206;SDS011;2117;47.972;7.830;2023-05-10T03:28:48;4.70;;;2.53;;
4206;SDS011;2117;47.972;7.830;2023-05-10T03:31:15;5.90;;;1.80;;
4206;SDS011;2117;47.972;7.830;2023-05-10T03:33:45;3.90;;;2.03;;
4206;SDS011;2117;47.972;7.830;2023-05-10T03:36:14;3.70;;;1.90;;
4206;SDS011;2117;47.972;7.830;2023-05-10T03:38:40;4.97;;;1.77;;
4206;SDS011;2117;47.972;7.830;2023-05-10T03:41:05;4.97;;;2.10;;
4206;SDS011;2117;47.972;7.830;2023-05-10T03:43:31;4.13;;;2.30;;
4206;SDS011;2117;47.972;7.830;2023-05-10T03:45:56;3.30;;;2.60;;
4206;SDS011;2117;47.972;7.830;2023-05-10T03:48:22;3.50;;;1.93;;
4206;SDS011;2117;47.972;7.830;2023-05-10T03:50:47;2.53;;;1.77;;
4206;SDS011;2117;47.972;7.830;2023-05-10T03:53:14;4.17;;;1.90;;
4206;SDS011;2117;47.972;7.830;2023-05-10T03:55:40;3.27;;;1.70;;
4206;SDS011;2117;47.972;7.830;2023-05-10T03:58:06;2.53;;;1.57;;
4206;SDS011;2117;47.972;7.830;2023-05-10T04:00:31;3.20;;;2.23;;
4206;SDS011;2117;47.972;7.830;2023-05-10T04:02:57;3.00;;;1.80;;
4206;SDS011;2117;47.972;7.830;2023-05-10T04:05:23;3.77;;;1.97;;
4206;SDS011;2117;47.972;7.830;2023-05-10T04:07:48;3.03;;;1.57;;
4206;SDS011;2117;47.972;7.830;2023-05-10T04:10:15;4.60;;;1.93;;
4206;SDS011;2117;47.972;7.830;2023-05-10T04:12:41;3.30;;;2.37;;
4206;SDS011;2117;47.972;7.830;2023-05-10T04:15:07;3.87;;;2.07;;
4206;SDS011;2117;47.972;7.830;2023-05-10T04:17:33;5.03;;;1.30;;
4206;SDS011;2117;47.972;7.830;2023-05-10T04:19:58;3.33;;;2.80;;
4206;SDS011;2117;47.972;7.830;2023-05-10T04:22:24;4.30;;;3.10;;
4206;SDS011;2117;47.972;7.830;2023-05-10T04:24:49;5.70;;;3.63;;
4206;SDS011;2117;47.972;7.830;2023-05-10T04:27:15;3.50;;;2.60;;
4206;SDS011;2117;47.972;7.830;2023-05-10T04:29:41;2.80;;;2.10;;
4206;SDS011;2117;47.972;7.830;2023-05-10T04:32:06;2.80;;;2.00;;
4206;SDS011;2117;47.972;7.830;2023-05-10T04:34:32;2.10;;;1.90;;
4206;SDS011;2117;47.972;7.830;2023-05-10T04:36:59;2.07;;;1.87;;
4206;SDS011;2117;47.972;7.830;2023-05-10T04:39:24;2.23;;;1.63;;
4206;SDS011;2117;47.972;7.830;2023-05-10T04:41:50;8.73;;;2.50;;
4206;SDS011;2117;47.972;7.830;2023-05-10T04:44:15;3.00;;;1.90;;
4206;SDS011;2117;47.972;7.830;2023-05-10T04:46:41;2.63;;;1.87;;
4206;SDS011;2117;47.972;7.830;2023-05-10T04:49:06;4.30;;;2.50;;
4206;SDS011;2117;47.972;7.830;2023-05-10T04:51:32;4.00;;;1.90;;
4206;SDS011;2117;47.972;7.830;2023-05-10T04:53:58;2.77;;;1.97;;
4206;SDS011;2117;47.972;7.830;2023-05-10T04:56:23;4.10;;;2.13;;
4206;SDS011;2117;47.972;7.830;2023-05-10T04:58:49;3.03;;;2.00;;
4206;SDS011;2117;47.972;7.830;2023-05-10T05:01:14;3.00;;;1.80;;
4206;SDS011;2117;47.972;7.830;2023-05-10T05:03:40;2.77;;;2.10;;
4206;SDS011;2117;47.972;7.830;2023-05-10T05:06:06;2.40;;;1.73;;
4206;SDS011;2117;47.972;7.830;2023-05-10T05:08:31;4.40;;;1.90;;
4206;SDS011;2117;47.972;7.830;2023-05-10T05:10:57;2.90;;;2.03;;
4206;SDS011;2117;47.972;7.830;2023-05-10T05:13:24;3.60;;;2.10;;
4206;SDS011;2117;47.972;7.830;2023-05-10T05:15:49;4.50;;;2.33;;
4206;SDS011;2117;47.972;7.830;2023-05-10T05:18:15;3.07;;;1.90;;
4206;SDS011;2117;47.972;7.830;2023-05-10T05:20:41;4.20;;;1.80;;
4206;SDS011;2117;47.972;7.830;2023-05-10T05:23:06;3.17;;;2.00;;
4206;SDS011;2117;47.972;7.830;2023-05-10T05:25:32;12.23;;;2.37;;
4206;SDS011;2117;47.972;7.830;2023-05-10T05:27:57;11.53;;;2.07;;
4206;SDS011;2117;47.972;7.830;2023-05-10T05:30:23;2.63;;;1.70;;
4206;SDS011;2117;47.972;7.830;2023-05-10T05:32:49;5.00;;;1.70;;
4206;SDS011;2117;47.972;7.830;2023-05-10T05:35:14;2.37;;;2.00;;
4206;SDS011;2117;47.972;7.830;2023-05-10T05:37:40;6.00;;;1.90;;
4206;SDS011;2117;47.972;7.830;2023-05-10T05:40:05;4.20;;;2.20;;
4206;SDS011;2117;47.972;7.830;2023-05-10T05:42:31;2.50;;;1.97;;
4206;SDS011;2117;47.972;7.830;2023-05-10T05:44:57;3.10;;;1.87;;
4206;SDS011;2117;47.972;7.830;2023-05-10T05:47:23;2.23;;;1.50;;
4206;SDS011;2117;47.972;7.830;2023-05-10T05:49:48;2.60;;;1.43;;
4206;SDS011;2117;47.972;7.830;2023-05-10T05:52:14;4.30;;;1.77;;
4206;SDS011;2117;47.972;7.830;2023-05-10T05:54:39;2.07;;;1.63;;
4206;SDS011;2117;47.972;7.830;2023-05-10T05:57:05;2.10;;;1.53;;
4206;SDS011;2117;47.972;7.830;2023-05-10T05:59:30;1.97;;;1.50;;
4206;SDS011;2117;47.972;7.830;2023-05-10T06:01:56;3.13;;;1.70;;
4206;SDS011;2117;47.972;7.830;2023-05-10T06:04:22;2.30;;;1.70;;
4206;SDS011;2117;47.972;7.830;2023-05-10T06:06:47;2.97;;;1.83;;
4206;SDS011;2117;47.972;7.830;2023-05-10T06:09:13;6.53;;;1.40;;
4206;SDS011;2117;47.972;7.830;2023-05-10T06:11:39;1.87;;;1.03;;
4206;SDS011;2117;47.972;7.830;2023-05-10T06:14:04;3.10;;;1.50;;
4206;SDS011;2117;47.972;7.830;2023-05-10T06:16:32;2.80;;;1.63;;
4206;SDS011;2117;47.972;7.830;2023-05-10T06:18:58;2.37;;;1.50;;
4206;SDS011;2117;47.972;7.830;2023-05-10T06:21:23;5.73;;;1.90;;
4206;SDS011;2117;47.972;7.830;2023-05-10T06:23:49;2.57;;;1.50;;
4206;SDS011;2117;47.972;7.830;2023-05-10T06:26:15;3.80;;;1.97;;
4206;SDS011;2117;47.972;7.830;2023-05-10T06:28:40;2.03;;;1.60;;
4206;SDS011;2117;47.972;7.830;2023-05-10T06:31:06;2.57;;;1.70;;
4206;SDS011;2117;47.972;7.830;2023-05-10T06:33:32;2.33;;;1.83;;
4206;SDS011;2117;47.972;7.830;2023-05-10T06:35:58;3.10;;;2.27;;
4206;SDS011;2117;47.972;7.830;2023-05-10T06:38:23;5.30;;;1.90;;
4206;SDS011;2117;47.972;7.830;2023-05-10T06:40:49;2.80;;;1.67;;
4206;SDS011;2117;47.972;7.830;2023-05-10T06:43:15;3.33;;;1.90;;
4206;SDS011;2117;47.972;7.830;2023-05-10T06:45:41;5.13;;;2.20;;
4206;SDS011;2117;47.972;7.830;2023-05-10T06:48:06;6.57;;;2.00;;
4206;SDS011;2117;47.972;7.830;2023-05-10T06:50:32;5.10;;;2.17;;
4206;SDS011;2117;47.972;7.830;2023-05-10T06:52:58;7.80;;;2.10;;
4206;SDS011;2117;47.972;7.830;2023-05-10T06:55:24;4.37;;;2.00;;
4206;SDS011;2117;47.972;7.830;2023-05-10T06:57:50;4.13;;;1.70;;
4206;SDS011;2117;47.972;7.830;2023-05-10T07:00:16;3.30;;;1.87;;
4206;SDS011;2117;47.972;7.830;2023-05-10T07:02:42;5.00;;;2.10;;
4206;SDS011;2117;47.972;7.830;2023-05-10T07:05:08;3.90;;;1.70;;
4206;SDS011;2117;47.972;7.830;2023-05-10T07:07:34;2.90;;;2.47;;
4206;SDS011;2117;47.972;7.830;2023-05-10T07:10:00;8.40;;;2.10;;
4206;SDS011;2117;47.972;7.830;2023-05-10T07:12:25;6.43;;;3.13;;
4206;SDS011;2117;47.972;7.830;2023-05-10T07:14:51;4.57;;;2.07;;
4206;SDS011;2117;47.972;7.830;2023-05-10T07:17:17;3.13;;;1.53;;
4206;SDS011;2117;47.972;7.830;2023-05-10T07:19:42;2.70;;;1.70;;
4206;SDS011;2117;47.972;7.830;2023-05-10T07:22:08;2.33;;;1.80;;
4206;SDS011;2117;47.972;7.830;2023-05-10T07:24:33;9.80;;;2.13;;
4206;SDS011;2117;47.972;7.830;2023-05-10T07:26:59;3.40;;;1.90;;
4206;SDS011;2117;47.972;7.830;2023-05-10T07:29:25;5.33;;;2.70;;
4206;SDS011;2117;47.972;7.830;2023-05-10T07:31:50;3.67;;;2.00;;
4206;SDS011;2117;47.972;7.830;2023-05-10T07:34:16;4.67;;;1.87;;
4206;SDS011;2117;47.972;7.830;2023-05-10T07:36:42;6.20;;;1.67;;
4206;SDS011;2117;47.972;7.830;2023-05-10T07:39:07;3.50;;;1.60;;
4206;SDS011;2117;47.972;7.830;2023-05-10T07:41:33;2.40;;;1.83;;
4206;SDS011;2117;47.972;7.830;2023-05-10T07:43:59;5.17;;;2.37;;
4206;SDS011;2117;47.972;7.830;2023-05-10T07:46:24;3.40;;;1.30;;
4206;SDS011;2117;47.972;7.830;2023-05-10T07:48:50;7.03;;;2.40;;
4206;SDS011;2117;47.972;7.830;2023-05-10T07:51:15;3.30;;;1.83;;
4206;SDS011;2117;47.972;7.830;2023-05-10T07:53:41;4.27;;;1.93;;
4206;SDS011;2117;47.972;7.830;2023-05-10T07:56:26;5.40;;;1.90;;
4206;SDS011;2117;47.972;7.830;2023-05-10T07:59:00;4.73;;;2.07;;
4206;SDS011;2117;47.972;7.830;2023-05-10T08:01:30;9.23;;;2.40;;
4206;SDS011;2117;47.972;7.830;2023-05-10T08:03:57;7.37;;;1.97;;
4206;SDS011;2117;47.972;7.830;2023-05-10T08:06:22;4.27;;;1.97;;
4206;SDS011;2117;47.972;7.830;2023-05-10T08:08:48;5.10;;;2.00;;
4206;SDS011;2117;47.972;7.830;2023-05-10T08:11:18;3.03;;;1.50;;
4206;SDS011;2117;47.972;7.830;2023-05-10T08:13:44;3.93;;;1.77;;
4206;SDS011;2117;47.972;7.830;2023-05-10T08:16:10;5.60;;;2.00;;
4206;SDS011;2117;47.972;7.830;2023-05-10T08:18:36;3.87;;;1.87;;
4206;SDS011;2117;47.972;7.830;2023-05-10T08:21:02;4.33;;;1.87;;
4206;SDS011;2117;47.972;7.830;2023-05-10T08:23:28;4.13;;;1.67;;
4206;SDS011;2117;47.972;7.830;2023-05-10T08:25:53;3.20;;;1.60;;
4206;SDS011;2117;47.972;7.830;2023-05-10T08:28:19;2.77;;;1.60;;
4206;SDS011;2117;47.972;7.830;2023-05-10T08:30:44;2.37;;;1.50;;
4206;SDS011;2117;47.972;7.830;2023-05-10T08:33:10;4.67;;;1.70;;
4206;SDS011;2117;47.972;7.830;2023-05-10T08:35:35;4.03;;;1.50;;
4206;SDS011;2117;47.972;7.830;2023-05-10T08:38:01;2.37;;;1.83;;
4206;SDS011;2117;47.972;7.830;2023-05-10T08:40:27;2.80;;;1.80;;
4206;SDS011;2117;47.972;7.830;2023-05-10T08:42:58;7.17;;;1.47;;
4206;SDS011;2117;47.972;7.830;2023-05-10T08:45:30;4.00;;;1.57;;
4206;SDS011;2117;47.972;7.830;2023-05-10T08:47:57;2.27;;;1.43;;
4206;SDS011;2117;47.972;7.830;2023-05-10T08:50:24;4.83;;;1.13;;
4206;SDS011;2117;47.972;7.830;2023-05-10T08:52:50;2.50;;;1.40;;
4206;SDS011;2117;47.972;7.830;2023-05-10T08:55:19;8.23;;;1.80;;
4206;SDS011;2117;47.972;7.830;2023-05-10T08:57:45;3.90;;;1.50;;
4206;SDS011;2117;47.972;7.830;2023-05-10T09:00:11;5.53;;;1.47;;
4206;SDS011;2117;47.972;7.830;2023-05-10T09:02:38;4.90;;;1.83;;
4206;SDS011;2117;47.972;7.830;2023-05-10T09:05:04;3.70;;;2.37;;
4206;SDS011;2117;47.972;7.830;2023-05-10T09:07:30;4.00;;;1.60;;
4206;SDS011;2117;47.972;7.830;2023-05-10T09:09:56;8.37;;;1.80;;
4206;SDS011;2117;47.972;7.830;2023-05-10T09:12:23;2.60;;;1.60;;
4206;SDS011;2117;47.972;7.830;2023-05-10T09:14:48;2.43;;;1.70;;
4206;SDS011;2117;47.972;7.830;2023-05-10T09:17:17;5.23;;;1.20;;
4206;SDS011;2117;47.972;7.830;2023-05-10T09:19:44;2.93;;;1.20;;
4206;SDS011;2117;47.972;7.830;2023-05-10T09:22:10;2.60;;;1.40;;
4206;SDS011;2117;47.972;7.830;2023-05-10T09:24:36;6.20;;;1.73;;
4206;SDS011;2117;47.972;7.830;2023-05-10T09:27:07;5.97;;;1.10;;
4206;SDS011;2117;47.972;7.830;2023-05-10T09:29:39;3.87;;;1.53;;
4206;SDS011;2117;47.972;7.830;2023-05-10T09:32:07;2.10;;;1.00;;
4206;SDS011;2117;47.972;7.830;2023-05-10T09:34:33;3.47;;;1.30;;
4206;SDS011;2117;47.972;7.830;2023-05-10T09:37:00;5.97;;;1.53;;
4206;SDS011;2117;47.972;7.830;2023-05-10T09:41:58;2.33;;;1.57;;
4206;SDS011;2117;47.972;7.830;2023-05-10T09:44:28;2.57;;;1.00;;
4206;SDS011;2117;47.972;7.830;2023-05-10T09:46:54;1.80;;;1.10;;
4206;SDS011;2117;47.972;7.830;2023-05-10T09:49:20;4.80;;;1.10;;
4206;SDS011;2117;47.972;7.830;2023-05-10T09:51:47;2.63;;;1.23;;
4206;SDS011;2117;47.972;7.830;2023-05-10T09:54:16;1.50;;;0.90;;
4206;SDS011;2117;47.972;7.830;2023-05-10T09:56:41;4.70;;;1.13;;
4206;SDS011;2117;47.972;7.830;2023-05-10T09:59:09;2.33;;;0.80;;
4206;SDS011;2117;47.972;7.830;2023-05-10T10:01:36;3.13;;;1.10;;
4206;SDS011;2117;47.972;7.830;2023-05-10T10:04:03;2.47;;;1.03;;
4206;SDS011;2117;47.972;7.830;2023-05-10T10:06:34;2.23;;;0.90;;
4206;SDS011;2117;47.972;7.830;2023-05-10T10:09:01;4.57;;;1.10;;
4206;SDS011;2117;47.972;7.830;2023-05-10T10:11:26;2.03;;;0.90;;
4206;SDS011;2117;47.972;7.830;2023-05-10T10:13:52;2.87;;;1.17;;
4206;SDS011;2117;47.972;7.830;2023-05-10T10:16:18;2.77;;;0.97;;
4206;SDS011;2117;47.972;7.830;2023-05-10T10:18:45;5.07;;;1.13;;
4206;SDS011;2117;47.972;7.830;2023-05-10T10:21:12;3.20;;;1.03;;
4206;SDS011;2117;47.972;7.830;2023-05-10T10:23:39;3.10;;;1.10;;
4206;SDS011;2117;47.972;7.830;2023-05-10T10:26:05;3.93;;;0.90;;
4206;SDS011;2117;47.972;7.830;2023-05-10T10:28:45;3.60;;;1.10;;
4206;SDS011;2117;47.972;7.830;2023-05-10T10:31:49;5.40;;;1.10;;
4206;SDS011;2117;47.972;7.830;2023-05-10T10:34:26;2.87;;;1.00;;
4206;SDS011;2117;47.972;7.830;2023-05-10T10:36:53;3.60;;;1.03;;
4206;SDS011;2117;47.972;7.830;2023-05-10T10:39:20;2.47;;;1.20;;
4206;SDS011;2117;47.972;7.830;2023-05-10T10:41:50;3.57;;;1.13;;
4206;SDS011;2117;47.972;7.830;2023-05-10T10:47:09;2.93;;;1.00;;
4206;SDS011;2117;47.972;7.830;2023-05-10T10:50:22;2.27;;;0.90;;
4206;SDS011;2117;47.972;7.830;2023-05-10T10:52:26;3.50;;;1.00;;
4206;SDS011;2117;47.972;7.830;2023-05-10T10:55:00;2.57;;;1.13;;
4206;SDS011;2117;47.972;7.830;2023-05-10T10:57:54;5.00;;;1.30;;
4206;SDS011;2117;47.972;7.830;2023-05-10T11:08:00;3.73;;;1.20;;
4206;SDS011;2117;47.972;7.830;2023-05-10T11:10:33;3.30;;;1.20;;
4206;SDS011;2117;47.972;7.830;2023-05-10T11:13:03;5.10;;;0.90;;
4206;SDS011;2117;47.972;7.830;2023-05-10T11:15:34;3.10;;;1.20;;
4206;SDS011;2117;47.972;7.830;2023-05-10T11:20:51;4.70;;;1.63;;
4206;SDS011;2117;47.972;7.830;2023-05-10T11:23:20;2.70;;;1.00;;
4206;SDS011;2117;47.972;7.830;2023-05-10T11:25:47;4.43;;;1.63;;
4206;SDS011;2117;47.972;7.830;2023-05-10T11:28:13;7.90;;;1.43;;
4206;SDS011;2117;47.972;7.830;2023-05-10T11:30:41;3.50;;;1.30;;
4206;SDS011;2117;47.972;7.830;2023-05-10T11:33:09;9.10;;;1.07;;
4206;SDS011;2117;47.972;7.830;2023-05-10T11:35:40;2.90;;;1.10;;
4206;SDS011;2117;47.972;7.830;2023-05-10T11:38:14;3.50;;;1.40;;
4206;SDS011;2117;47.972;7.830;2023-05-10T11:40:40;3.53;;;1.30;;
4206;SDS011;2117;47.972;7.830;2023-05-10T11:43:07;2.23;;;1.10;;
4206;SDS011;2117;47.972;7.830;2023-05-10T11:45:34;2.80;;;1.20;;
4206;SDS011;2117;47.972;7.830;2023-05-10T11:48:00;5.87;;;1.60;;
4206;SDS011;2117;47.972;7.830;2023-05-10T11:50:26;8.10;;;1.27;;
4206;SDS011;2117;47.972;7.830;2023-05-10T11:52:52;14.33;;;1.10;;
4206;SDS011;2117;47.972;7.830;2023-05-10T11:55:19;2.07;;;0.93;;
4206;SDS011;2117;47.972;7.830;2023-05-10T11:57:45;2.83;;;0.90;;
4206;SDS011;2117;47.972;7.830;2023-05-10T12:00:11;4.13;;;1.20;;
4206;SDS011;2117;47.972;7.830;2023-05-10T12:02:40;6.30;;;1.50;;
4206;SDS011;2117;47.972;7.830;2023-05-10T12:05:06;3.93;;;1.10;;
4206;SDS011;2117;47.972;7.830;2023-05-10T12:07:32;2.77;;;0.87;;
4206;SDS011;2117;47.972;7.830;2023-05-10T12:10:07;1.67;;;0.67;;
4206;SDS011;2117;47.972;7.830;2023-05-10T12:12:43;1.70;;;0.90;;
4206;SDS011;2117;47.972;7.830;2023-05-10T12:17:43;2.77;;;1.10;;
4206;SDS011;2117;47.972;7.830;2023-05-10T12:20:16;1.60;;;0.70;;
4206;SDS011;2117;47.972;7.830;2023-05-10T12:22:50;3.97;;;1.10;;
4206;SDS011;2117;47.972;7.830;2023-05-10T12:25:17;3.40;;;1.03;;
4206;SDS011;2117;47.972;7.830;2023-05-10T12:27:54;3.17;;;1.07;;
4206;SDS011;2117;47.972;7.830;2023-05-10T12:30:22;2.90;;;0.93;;
4206;SDS011;2117;47.972;7.830;2023-05-10T12:32:49;7.03;;;1.10;;
4206;SDS011;2117;47.972;7.830;2023-05-10T12:35:14;3.10;;;0.87;;
4206;SDS011;2117;47.972;7.830;2023-05-10T12:37:41;6.83;;;1.13;;
4206;SDS011;2117;47.972;7.830;2023-05-10T12:40:08;3.00;;;1.17;;
4206;SDS011;2117;47.972;7.830;2023-05-10T12:42:36;7.27;;;0.80;;
4206;SDS011;2117;47.972;7.830;2023-05-10T12:45:03;3.50;;;1.37;;
4206;SDS011;2117;47.972;7.830;2023-05-10T12:47:30;2.60;;;1.23;;
4206;SDS011;2117;47.972;7.830;2023-05-10T12:49:56;6.47;;;2.07;;
4206;SDS011;2117;47.972;7.830;2023-05-10T12:52:22;3.67;;;0.80;;
4206;SDS011;2117;47.972;7.830;2023-05-10T12:54:48;3.03;;;0.97;;
4206;SDS011;2117;47.972;7.830;2023-05-10T12:57:14;2.73;;;0.90;;
4206;SDS011;2117;47.972;7.830;2023-05-10T12:59:39;1.97;;;1.17;;
4206;SDS011;2117;47.972;7.830;2023-05-10T13:02:05;2.90;;;0.90;;
4206;SDS011;2117;47.972;7.830;2023-05-10T13:04:31;1.90;;;0.60;;
4206;SDS011;2117;47.972;7.830;2023-05-10T13:06:57;2.50;;;0.80;;
4206;SDS011;2117;47.972;7.830;2023-05-10T13:09:24;2.37;;;0.80;;
4206;SDS011;2117;47.972;7.830;2023-05-10T13:11:50;2.33;;;1.10;;
4206;SDS011;2117;47.972;7.830;2023-05-10T13:14:18;1.70;;;0.60;;
4206;SDS011;2117;47.972;7.830;2023-05-10T13:16:45;2.27;;;0.93;;
4206;SDS011;2117;47.972;7.830;2023-05-10T13:19:11;2.27;;;0.77;;
4206;SDS011;2117;47.972;7.830;2023-05-10T13:21:37;3.20;;;1.00;;
4206;SDS011;2117;47.972;7.830;2023-05-10T13:24:03;2.20;;;0.67;;
4206;SDS011;2117;47.972;7.830;2023-05-10T13:26:28;2.93;;;0.97;;
4206;SDS011;2117;47.972;7.830;2023-05-10T13:28:57;2.57;;;1.00;;
4206;SDS011;2117;47.972;7.830;2023-05-10T13:31:23;2.67;;;1.20;;
4206;SDS011;2117;47.972;7.830;2023-05-10T13:33:48;3.67;;;0.93;;
4206;SDS011;2117;47.972;7.830;2023-05-10T13:36:14;1.60;;;0.80;;
4206;SDS011;2117;47.972;7.830;2023-05-10T13:38:39;1.73;;;0.80;;
4206;SDS011;2117;47.972;7.830;2023-05-10T13:41:05;3.33;;;0.93;;
4206;SDS011;2117;47.972;7.830;2023-05-10T13:43:30;2.70;;;0.80;;
4206;SDS011;2117;47.972;7.830;2023-05-10T13:45:56;4.17;;;0.80;;
4206;SDS011;2117;47.972;7.830;2023-05-10T13:48:22;1.90;;;0.70;;
4206;SDS011;2117;47.972;7.830;2023-05-10T13:50:47;2.80;;;1.00;;
4206;SDS011;2117;47.972;7.830;2023-05-10T13:53:13;1.93;;;0.70;;
4206;SDS011;2117;47.972;7.830;2023-05-10T13:55:39;2.67;;;0.80;;
4206;SDS011;2117;47.972;7.830;2023-05-10T13:58:05;3.50;;;0.70;;
4206;SDS011;2117;47.972;7.830;2023-05-10T14:00:30;2.43;;;0.70;;
4206;SDS011;2117;47.972;7.830;2023-05-10T14:02:56;3.37;;;0.73;;
4206;SDS011;2117;47.972;7.830;2023-05-10T14:05:21;2.23;;;0.70;;
4206;SDS011;2117;47.972;7.830;2023-05-10T14:07:48;2.27;;;0.90;;
4206;SDS011;2117;47.972;7.830;2023-05-10T14:10:15;2.47;;;0.80;;
4206;SDS011;2117;47.972;7.830;2023-05-10T14:12:40;2.30;;;1.23;;
4206;SDS011;2117;47.972;7.830;2023-05-10T14:15:06;2.17;;;0.80;;
4206;SDS011;2117;47.972;7.830;2023-05-10T14:17:32;1.40;;;0.70;;
4206;SDS011;2117;47.972;7.830;2023-05-10T14:19:57;3.00;;;0.80;;
4206;SDS011;2117;47.972;7.830;2023-05-10T14:22:23;3.13;;;1.00;;
4206;SDS011;2117;47.972;7.830;2023-05-10T14:24:49;1.30;;;0.60;;
4206;SDS011;2117;47.972;7.830;2023-05-10T14:27:15;3.23;;;0.70;;
4206;SDS011;2117;47.972;7.830;2023-05-10T14:29:40;1.70;;;0.80;;
4206;SDS011;2117;47.972;7.830;2023-05-10T14:32:06;1.50;;;0.63;;
4206;SDS011;2117;47.972;7.830;2023-05-10T14:34:32;1.40;;;0.70;;
4206;SDS011;2117;47.972;7.830;2023-05-10T14:36:58;3.77;;;1.10;;
4206;SDS011;2117;47.972;7.830;2023-05-10T14:39:23;2.90;;;0.80;;
4206;SDS011;2117;47.972;7.830;2023-05-10T14:41:50;3.93;;;0.87;;
4206;SDS011;2117;47.972;7.830;2023-05-10T14:44:17;1.70;;;0.77;;
4206;SDS011;2117;47.972;7.830;2023-05-10T14:46:42;2.87;;;0.70;;
4206;SDS011;2117;47.972;7.830;2023-05-10T14:49:08;1.83;;;0.70;;
4206;SDS011;2117;47.972;7.830;2023-05-10T14:51:33;2.33;;;0.80;;
4206;SDS011;2117;47.972;7.830;2023-05-10T14:53:59;1.87;;;0.70;;
4206;SDS011;2117;47.972;7.830;2023-05-10T14:56:24;1.30;;;0.70;;
4206;SDS011;2117;47.972;7.830;2023-05-10T14:58:51;2.60;;;0.70;;
4206;SDS011;2117;47.972;7.830;2023-05-10T15:01:16;1.70;;;0.73;;
4206;SDS011;2117;47.972;7.830;2023-05-10T15:03:42;2.03;;;0.97;;
4206;SDS011;2117;47.972;7.830;2023-05-10T15:06:07;2.53;;;0.80;;
4206;SDS011;2117;47.972;7.830;2023-05-10T15:08:33;2.30;;;0.80;;
4206;SDS011;2117;47.972;7.830;2023-05-10T15:10:59;2.13;;;1.00;;
4206;SDS011;2117;47.972;7.830;2023-05-10T15:13:24;3.20;;;0.80;;
4206;SDS011;2117;47.972;7.830;2023-05-10T15:15:50;1.73;;;0.80;;
4206;SDS011;2117;47.972;7.830;2023-05-10T15:18:16;3.20;;;1.03;;
4206;SDS011;2117;47.972;7.830;2023-05-10T15:20:41;2.73;;;0.77;;
4206;SDS011;2117;47.972;7.830;2023-05-10T15:23:07;2.60;;;0.83;;
4206;SDS011;2117;47.972;7.830;2023-05-10T15:25:32;1.60;;;0.90;;
4206;SDS011;2117;47.972;7.830;2023-05-10T15:28:02;1.40;;;0.70;;
4206;SDS011;2117;47.972;7.830;2023-05-10T15:30:29;2.50;;;0.70;;
4206;SDS011;2117;47.972;7.830;2023-05-10T15:32:54;4.80;;;0.80;;
4206;SDS011;2117;47.972;7.830;2023-05-10T15:35:20;1.40;;;0.67;;
4206;SDS011;2117;47.972;7.830;2023-05-10T15:37:47;1.60;;;0.70;;
4206;SDS011;2117;47.972;7.830;2023-05-10T15:40:13;2.63;;;1.00;;
4206;SDS011;2117;47.972;7.830;2023-05-10T15:42:39;1.50;;;0.70;;
4206;SDS011;2117;47.972;7.830;2023-05-10T15:45:04;2.27;;;0.80;;
4206;SDS011;2117;47.972;7.830;2023-05-10T15:47:31;2.53;;;0.80;;
4206;SDS011;2117;47.972;7.830;2023-05-10T15:49:57;4.80;;;0.83;;
4206;SDS011;2117;47.972;7.830;2023-05-10T15:52:23;1.40;;;0.73;;
4206;SDS011;2117;47.972;7.830;2023-05-10T15:54:49;1.50;;;0.60;;
4206;SDS011;2117;47.972;7.830;2023-05-10T15:57:15;2.10;;;0.80;;